Time;durP1;ratioP1;P1;durP2;ratioP2;P2;SDS_P1;SDS_P2;PMS_P1;PMS_P2;Temp;Humidity;BMP_temperature;BMP_pressure;BME280_temperature;BME280_humidity;BME280_pressure;Samples;Min_cycle;Max_cycle;Signal;HPM_P1;HPM_P2
2021/08/11 00:00:55;;;;;;;1.20;1.07;;;17.30;98.00;;;;;;5071275;28;20478;-74
2021/08/11 00:03:21;;;;;;;1.47;1.20;;;17.20;98.00;;;;;;5071117;28;20522;-75
2021/08/11 00:05:49;;;;;;;1.20;1.03;;;17.10;98.00;;;;;;5071195;28;20489;-73
2021/08/11 00:08:18;;;;;;;2.07;1.30;;;17.00;98.00;;;;;;5071340;28;20457;-73
2021/08/11 00:10:45;;;;;;;1.53;1.33;;;16.90;98.00;;;;;;5071130;28;20452;-73
2021/08/11 00:13:12;;;;;;;1.40;1.30;;;16.90;98.00;;;;;;5071004;28;20894;-74
2021/08/11 00:15:39;;;;;;;1.63;1.57;;;16.90;98.00;;;;;;5070786;28;20496;-74
2021/08/11 00:18:06;;;;;;;1.40;1.20;;;16.90;98.00;;;;;;5070861;28;20495;-74
2021/08/11 00:20:35;;;;;;;1.30;1.30;;;16.80;98.00;;;;;;5070671;28;20475;-74
2021/08/11 00:23:02;;;;;;;1.40;1.20;;;16.80;98.00;;;;;;5053290;28;20459;-73
2021/08/11 00:25:32;;;;;;;1.20;1.07;;;16.70;98.00;;;;;;5070726;28;20456;-73
2021/08/11 00:27:59;;;;;;;1.20;1.10;;;16.70;98.00;;;;;;5053013;28;20483;-74
2021/08/11 00:30:26;;;;;;;2.00;1.50;;;16.70;98.00;;;;;;5052940;28;20741;-75
2021/08/11 00:32:53;;;;;;;1.77;1.33;;;16.60;98.00;;;;;;5070662;28;20480;-74
2021/08/11 00:35:20;;;;;;;1.20;1.20;;;16.60;98.00;;;;;;5070951;28;20740;-73
2021/08/11 00:37:47;;;;;;;1.73;1.20;;;16.70;98.00;;;;;;5070736;28;20456;-74
2021/08/11 00:40:15;;;;;;;1.43;1.20;;;16.70;98.00;;;;;;5070681;28;20489;-74
2021/08/11 00:42:44;;;;;;;1.30;1.23;;;16.70;98.00;;;;;;5073525;28;21040;-74
2021/08/11 00:45:13;;;;;;;1.40;1.30;;;16.70;98.00;;;;;;5074624;28;20460;-73
2021/08/11 00:47:41;;;;;;;1.30;1.10;;;16.70;98.00;;;;;;5074545;28;20543;-75
2021/08/11 00:50:10;;;;;;;2.87;1.50;;;16.70;98.00;;;;;;5074682;28;20510;-75
2021/08/11 00:52:37;;;;;;;1.80;1.47;;;16.60;98.00;;;;;;5074492;28;20557;-74
2021/08/11 00:55:06;;;;;;;3.00;1.37;;;16.60;98.00;;;;;;5074572;28;20457;-74
2021/08/11 00:57:34;;;;;;;2.03;1.43;;;16.50;98.00;;;;;;5056791;28;20527;-74
2021/08/11 01:00:04;;;;;;;2.23;1.30;;;16.60;98.00;;;;;;5074496;28;20452;-74
2021/08/11 01:02:35;;;;;;;1.20;1.10;;;16.50;98.00;;;;;;5074285;28;20807;-74
2021/08/11 01:05:03;;;;;;;2.47;1.60;;;16.40;98.00;;;;;;5074336;28;20453;-75
2021/08/11 01:07:33;;;;;;;1.73;1.40;;;16.20;98.00;;;;;;5074209;28;20848;-75
2021/08/11 01:10:00;;;;;;;1.80;1.20;;;16.20;98.00;;;;;;5074346;28;21033;-74
2021/08/11 01:12:28;;;;;;;1.30;1.30;;;16.40;98.00;;;;;;5074000;28;20524;-74
2021/08/11 01:14:56;;;;;;;1.30;1.30;;;16.30;98.00;;;;;;5074234;28;20518;-74
2021/08/11 01:17:25;;;;;;;1.20;1.10;;;16.40;98.00;;;;;;5073820;28;20448;-74
2021/08/11 01:19:53;;;;;;;1.50;1.13;;;16.50;98.00;;;;;;5074468;28;20852;-74
2021/08/11 01:22:27;;;;;;;1.50;1.30;;;16.50;98.00;;;;;;5056139;28;20452;-74
2021/08/11 01:25:00;;;;;;;2.17;1.40;;;16.60;98.00;;;;;;5074266;28;20452;-73
2021/08/11 01:28:06;;;;;;;1.30;1.20;;;16.30;98.00;;;;;;5074266;28;20464;-74
2021/08/11 01:30:38;;;;;;;2.43;1.10;;;16.30;98.00;;;;;;5066266;28;20495;-74
2021/08/11 01:33:28;;;;;;;1.57;1.17;;;16.40;98.00;;;;;;5073977;28;20516;-74
2021/08/11 01:36:00;;;;;;;1.60;1.27;;;16.50;98.00;;;;;;5060988;28;20548;-74
2021/08/11 01:38:34;;;;;;;1.20;1.10;;;16.40;98.00;;;;;;5073827;28;20488;-73
2021/08/11 01:41:04;;;;;;;1.30;1.17;;;16.30;98.00;;;;;;5073555;28;20510;-74
2021/08/11 01:43:37;;;;;;;2.60;1.30;;;16.30;98.00;;;;;;5055846;28;20452;-74
2021/08/11 01:46:07;;;;;;;1.30;1.10;;;16.20;98.00;;;;;;5073701;28;20459;-74
2021/08/11 01:48:38;;;;;;;1.30;1.20;;;16.30;98.00;;;;;;5073594;28;20484;-75
2021/08/11 01:51:06;;;;;;;1.73;1.30;;;16.30;98.00;;;;;;5073533;28;20508;-73
2021/08/11 01:53:34;;;;;;;1.50;1.40;;;16.40;98.00;;;;;;5072798;28;20538;-74
2021/08/11 01:56:02;;;;;;;1.77;1.40;;;16.40;98.00;;;;;;5073399;28;20457;-74
2021/08/11 01:58:31;;;;;;;1.60;1.30;;;16.50;98.00;;;;;;5055721;28;20485;-74
2021/08/11 02:01:00;;;;;;;2.53;1.40;;;16.60;98.00;;;;;;5055698;28;20482;-74
2021/08/11 02:03:28;;;;;;;1.90;1.33;;;16.40;98.00;;;;;;5073501;28;20553;-74
2021/08/11 02:05:57;;;;;;;1.33;1.20;;;16.20;98.00;;;;;;5055146;28;20460;-74
2021/08/11 02:08:25;;;;;;;1.33;1.23;;;16.10;98.00;;;;;;5073230;28;20488;-74
2021/08/11 02:10:56;;;;;;;1.20;1.10;;;16.00;98.00;;;;;;5073101;28;20776;-75
2021/08/11 02:13:23;;;;;;;1.50;1.30;;;16.00;98.00;;;;;;5073115;28;20488;-74
2021/08/11 02:15:51;;;;;;;2.27;1.60;;;16.20;98.00;;;;;;5072984;28;20456;-74
2021/08/11 02:18:19;;;;;;;2.90;1.67;;;16.10;98.00;;;;;;5072868;28;20453;-74
2021/08/11 02:20:46;;;;;;;1.60;1.30;;;16.00;98.00;;;;;;5072874;28;20955;-75
2021/08/11 02:23:15;;;;;;;1.37;1.20;;;16.00;98.00;;;;;;5072819;28;20460;-74
2021/08/11 02:25:48;;;;;;;1.40;1.20;;;16.10;98.00;;;;;;5055024;28;20510;-75
2021/08/11 02:28:21;;;;;;;1.20;1.07;;;16.20;98.00;;;;;;5054911;28;21020;-74
2021/08/11 02:30:57;;;;;;;1.20;1.10;;;16.10;98.00;;;;;;5072585;28;20489;-74
2021/08/11 02:33:31;;;;;;;1.60;1.20;;;16.00;98.00;;;;;;5054871;28;20512;-75
2021/08/11 02:36:03;;;;;;;1.20;1.10;;;15.80;98.00;;;;;;5072731;28;20452;-76
2021/08/11 02:38:37;;;;;;;1.70;1.10;;;15.90;98.00;;;;;;5072602;28;20978;-75
2021/08/11 02:41:11;;;;;;;1.20;1.10;;;15.80;98.00;;;;;;5072690;28;20978;-75
2021/08/11 02:43:40;;;;;;;1.30;1.20;;;15.70;98.00;;;;;;5072584;28;20518;-74
2021/08/11 02:46:11;;;;;;;1.30;1.20;;;15.70;98.00;;;;;;5055288;28;20515;-74
2021/08/11 02:48:40;;;;;;;1.40;1.30;;;15.90;98.00;;;;;;5072594;28;20489;-74
2021/08/11 02:51:09;;;;;;;1.97;1.23;;;15.80;98.00;;;;;;5072633;28;20890;-74
2021/08/11 02:53:40;;;;;;;2.50;1.43;;;15.70;98.00;;;;;;5072387;28;20892;-74
2021/08/11 02:56:08;;;;;;;1.20;1.10;;;15.70;98.00;;;;;;5072436;28;20514;-74
2021/08/11 02:58:37;;;;;;;2.30;1.27;;;15.60;98.00;;;;;;5072243;28;20807;-74
2021/08/11 03:01:05;;;;;;;1.50;1.10;;;15.70;98.00;;;;;;5054480;28;20792;-74
2021/08/11 03:03:32;;;;;;;1.87;1.10;;;15.70;98.00;;;;;;5071623;28;20904;-75
2021/08/11 03:05:59;;;;;;;3.00;1.40;;;15.80;98.00;;;;;;5071601;28;20511;-74
2021/08/11 03:08:28;;;;;;;1.20;1.10;;;15.90;98.00;;;;;;5072098;28;20517;-73
2021/08/11 03:10:57;;;;;;;1.67;1.10;;;15.80;98.00;;;;;;5054267;28;20465;-73
2021/08/11 03:13:25;;;;;;;1.20;1.10;;;15.70;98.00;;;;;;5071868;28;20527;-75
2021/08/11 03:15:52;;;;;;;2.07;1.33;;;15.60;98.00;;;;;;5071874;28;20471;-74
2021/08/11 03:18:20;;;;;;;1.20;1.10;;;15.50;98.00;;;;;;5071710;28;20521;-73
2021/08/11 03:20:48;;;;;;;1.60;1.33;;;15.50;98.00;;;;;;5071851;28;20506;-74
2021/08/11 03:23:16;;;;;;;1.30;1.20;;;15.60;98.00;;;;;;5071773;28;20453;-74
2021/08/11 03:25:43;;;;;;;3.83;1.20;;;15.60;98.00;;;;;;5071645;28;20488;-74
2021/08/11 03:28:13;;;;;;;1.20;1.10;;;15.80;98.00;;;;;;5053873;28;20461;-74
2021/08/11 03:30:42;;;;;;;3.30;1.50;;;15.80;98.00;;;;;;5053501;28;20465;-75
2021/08/11 03:33:14;;;;;;;3.00;1.63;;;15.90;98.00;;;;;;5071558;28;20485;-74
2021/08/11 03:35:41;;;;;;;1.77;1.23;;;16.00;98.00;;;;;;5071015;28;20465;-74
2021/08/11 03:38:08;;;;;;;1.60;1.40;;;15.90;98.00;;;;;;5053826;28;20457;-74
2021/08/11 03:40:35;;;;;;;1.67;1.20;;;15.80;98.00;;;;;;5071335;28;20516;-74
2021/08/11 03:43:02;;;;;;;1.30;1.20;;;15.70;98.00;;;;;;5071323;28;20445;-74
2021/08/11 03:45:30;;;;;;;1.93;1.40;;;15.70;98.00;;;;;;5071318;28;20855;-74
2021/08/11 03:47:57;;;;;;;1.20;1.00;;;15.60;98.00;;;;;;5071095;28;21020;-74
2021/08/11 03:50:25;;;;;;;1.20;1.00;;;15.70;98.00;;;;;;5071317;28;20462;-74
2021/08/11 03:52:53;;;;;;;1.20;1.00;;;15.80;98.00;;;;;;5070877;28;20449;-74
2021/08/11 03:55:20;;;;;;;1.20;1.00;;;15.90;98.00;;;;;;5071246;28;20487;-74
2021/08/11 03:57:47;;;;;;;5.33;1.63;;;15.90;98.00;;;;;;5071041;28;20449;-74
2021/08/11 04:00:15;;;;;;;1.60;1.37;;;16.10;98.00;;;;;;5071177;28;20464;-74
2021/08/11 04:02:43;;;;;;;1.20;1.10;;;16.10;98.00;;;;;;5053059;28;20457;-75
2021/08/11 04:05:12;;;;;;;1.23;1.20;;;16.00;98.00;;;;;;5071167;28;20992;-74
2021/08/11 04:07:39;;;;;;;1.20;1.20;;;15.90;98.00;;;;;;5071228;28;20459;-74
2021/08/11 04:10:08;;;;;;;1.30;1.23;;;15.90;98.00;;;;;;5071300;28;20514;-75
2021/08/11 04:12:35;;;;;;;1.90;1.50;;;15.90;98.00;;;;;;5070931;28;20453;-74
2021/08/11 04:15:02;;;;;;;1.20;1.00;;;15.90;98.00;;;;;;5070795;28;20477;-75
2021/08/11 04:17:29;;;;;;;1.50;1.20;;;16.10;98.00;;;;;;5070947;28;20506;-74
2021/08/11 04:19:58;;;;;;;1.50;1.27;;;16.20;98.00;;;;;;5070917;28;20467;-73
2021/08/11 04:22:25;;;;;;;1.30;1.10;;;16.30;98.00;;;;;;5070818;28;20511;-74
2021/08/11 04:24:51;;;;;;;1.30;1.17;;;16.30;98.00;;;;;;5070721;28;20488;-75
2021/08/11 04:27:18;;;;;;;1.30;1.13;;;16.30;98.00;;;;;;5070969;28;20464;-74
2021/08/11 04:29:45;;;;;;;1.20;1.10;;;16.30;98.00;;;;;;5070824;28;20558;-74
2021/08/11 04:32:12;;;;;;;1.20;1.20;;;16.20;98.00;;;;;;5070526;28;20456;-75
2021/08/11 04:34:39;;;;;;;2.03;1.10;;;16.30;98.00;;;;;;5070720;28;20898;-74
2021/08/11 04:37:08;;;;;;;1.47;1.40;;;16.30;98.00;;;;;;5070702;28;20542;-74
2021/08/11 04:39:35;;;;;;;1.20;1.20;;;16.10;98.00;;;;;;5070655;28;20488;-74
2021/08/11 04:42:02;;;;;;;1.50;1.30;;;16.00;98.00;;;;;;5070429;28;20476;-75
2021/08/11 04:44:29;;;;;;;1.50;1.10;;;15.90;98.00;;;;;;5052779;28;20452;-74
2021/08/11 04:46:58;;;;;;;1.20;1.00;;;15.80;98.00;;;;;;5070514;28;20557;-74
2021/08/11 04:49:25;;;;;;;1.53;1.10;;;15.80;98.00;;;;;;5070642;28;20535;-74
2021/08/11 04:51:52;;;;;;;1.70;1.50;;;15.80;98.00;;;;;;5070255;28;20514;-73
2021/08/11 04:54:20;;;;;;;1.20;1.10;;;16.00;98.00;;;;;;5070437;28;20715;-74
2021/08/11 04:56:47;;;;;;;1.40;1.10;;;16.20;98.00;;;;;;5070431;28;20461;-74
2021/08/11 04:59:14;;;;;;;1.20;1.00;;;16.40;98.00;;;;;;5070471;28;20453;-74
2021/08/11 05:01:41;;;;;;;1.60;1.23;;;16.60;98.00;;;;;;5070191;28;20464;-74
2021/08/11 05:04:11;;;;;;;1.20;1.10;;;16.50;98.00;;;;;;5070467;28;20484;-74
2021/08/11 05:06:38;;;;;;;1.50;1.40;;;16.40;98.00;;;;;;5070339;28;20453;-74
2021/08/11 05:09:05;;;;;;;1.53;1.13;;;16.20;98.00;;;;;;5070417;28;20460;-74
2021/08/11 05:11:34;;;;;;;1.50;1.30;;;16.10;98.00;;;;;;5070387;28;20457;-74
2021/08/11 05:14:00;;;;;;;1.40;1.17;;;16.00;98.00;;;;;;5070255;28;20577;-74
2021/08/11 05:16:27;;;;;;;2.00;1.50;;;15.90;98.00;;;;;;5070445;28;20465;-74
2021/08/11 05:18:55;;;;;;;1.77;1.50;;;15.90;98.00;;;;;;5070415;28;20460;-73
2021/08/11 05:21:23;;;;;;;1.93;1.47;;;15.90;98.00;;;;;;5070308;28;20461;-75
2021/08/11 05:23:50;;;;;;;1.30;1.07;;;16.00;98.00;;;;;;5052670;28;20533;-74
2021/08/11 05:26:17;;;;;;;1.47;1.40;;;16.00;98.00;;;;;;5070268;28;21031;-74
2021/08/11 05:28:46;;;;;;;1.20;1.20;;;16.10;98.00;;;;;;5073161;28;20452;-74
2021/08/11 05:31:14;;;;;;;1.20;1.00;;;16.20;98.00;;;;;;5073807;28;21024;-74
2021/08/11 05:33:41;;;;;;;1.30;1.20;;;16.20;98.00;;;;;;5073788;28;20481;-73
2021/08/11 05:36:09;;;;;;;1.30;1.30;;;16.20;98.00;;;;;;5073951;28;20460;-74
2021/08/11 05:38:38;;;;;;;1.77;1.33;;;16.10;98.00;;;;;;5073517;28;21043;-75
2021/08/11 05:41:05;;;;;;;1.30;1.20;;;16.20;98.00;;;;;;5055840;28;20455;-75
2021/08/11 05:43:33;;;;;;;1.33;1.10;;;16.40;98.00;;;;;;5073727;28;20452;-74
2021/08/11 05:46:01;;;;;;;2.27;1.70;;;16.40;98.00;;;;;;5073588;28;20502;-73
2021/08/11 05:48:28;;;;;;;1.60;1.37;;;16.40;98.00;;;;;;5073588;28;20457;-75
2021/08/11 05:50:55;;;;;;;1.70;1.30;;;16.50;98.00;;;;;;5073458;28;20526;-74
2021/08/11 05:53:22;;;;;;;1.97;1.40;;;16.60;98.00;;;;;;5073342;28;20497;-74
2021/08/11 05:55:50;;;;;;;1.40;1.40;;;16.60;98.00;;;;;;5073406;28;20460;-74
2021/08/11 05:58:17;;;;;;;1.43;1.23;;;16.70;98.00;;;;;;5073552;28;20505;-74
2021/08/11 06:00:44;;;;;;;1.97;1.50;;;16.80;98.00;;;;;;5073300;28;20460;-73
2021/08/11 06:03:16;;;;;;;1.20;1.20;;;16.80;98.00;;;;;;5073322;28;20465;-75
2021/08/11 06:05:43;;;;;;;1.27;1.07;;;16.80;98.00;;;;;;5055676;28;20485;-74
2021/08/11 06:08:11;;;;;;;4.80;1.30;;;16.90;98.00;;;;;;5073224;28;20503;-75
2021/08/11 06:10:39;;;;;;;1.30;1.20;;;17.00;98.00;;;;;;5072573;28;20551;-75
2021/08/11 06:13:06;;;;;;;1.60;1.20;;;17.10;98.00;;;;;;5073136;28;20540;-74
2021/08/11 06:15:33;;;;;;;1.20;1.00;;;17.20;98.00;;;;;;5055349;28;20530;-75
2021/08/11 06:18:00;;;;;;;1.40;1.30;;;17.30;98.00;;;;;;5055309;28;20485;-75
2021/08/11 06:20:28;;;;;;;1.80;1.63;;;17.40;98.00;;;;;;5073060;28;20461;-75
2021/08/11 06:22:55;;;;;;;1.30;1.10;;;17.60;98.00;;;;;;5072847;28;20522;-74
2021/08/11 06:25:22;;;;;;;1.37;1.30;;;17.70;98.00;;;;;;5073159;28;20506;-74
2021/08/11 06:27:49;;;;;;;2.37;1.40;;;17.80;98.00;;;;;;5073221;28;20943;-75
2021/08/11 06:30:16;;;;;;;1.30;1.20;;;17.90;98.00;;;;;;5072806;28;20457;-75
2021/08/11 06:32:44;;;;;;;1.40;1.30;;;18.00;98.00;;;;;;5072741;28;20488;-74
2021/08/11 06:35:12;;;;;;;1.40;1.20;;;18.10;98.00;;;;;;5072925;28;20605;-74
2021/08/11 06:37:48;;;;;;;1.40;1.20;;;18.20;98.00;;;;;;5073804;28;20544;-74
2021/08/11 06:40:30;;;;;;;1.77;1.30;;;18.40;98.00;;;;;;5073411;28;20460;-75
2021/08/11 06:42:57;;;;;;;2.53;1.70;;;18.50;98.00;;;;;;5073584;28;20457;-75
2021/08/11 06:45:24;;;;;;;2.17;1.40;;;18.50;98.00;;;;;;5073879;28;20456;-75
2021/08/11 06:47:52;;;;;;;1.70;1.60;;;18.50;98.00;;;;;;5073016;28;20522;-75
2021/08/11 06:50:19;;;;;;;1.53;1.33;;;18.50;98.00;;;;;;5072389;28;20461;-75
2021/08/11 06:52:47;;;;;;;2.03;1.57;;;18.50;98.00;;;;;;5072698;28;20453;-75
2021/08/11 06:55:16;;;;;;;1.43;1.30;;;18.60;98.00;;;;;;5072530;28;20485;-75
2021/08/11 06:57:46;;;;;;;1.40;1.30;;;18.70;98.00;;;;;;5072336;28;20518;-75
2021/08/11 07:00:13;;;;;;;1.20;1.20;;;18.80;98.00;;;;;;5072244;28;20836;-74
2021/08/11 07:02:42;;;;;;;1.40;1.30;;;18.90;98.00;;;;;;5072251;28;20453;-74
2021/08/11 07:05:10;;;;;;;1.90;1.77;;;19.10;98.00;;;;;;5054573;28;20510;-74
2021/08/11 07:07:37;;;;;;;1.97;1.57;;;19.20;98.00;;;;;;5071995;28;20526;-75
2021/08/11 07:10:06;;;;;;;1.37;1.30;;;19.30;98.00;;;;;;5072095;28;20453;-75
2021/08/11 07:12:34;;;;;;;1.30;1.30;;;19.40;98.00;;;;;;5072079;28;20452;-75
2021/08/11 07:15:01;;;;;;;1.63;1.43;;;19.50;98.00;;;;;;5071996;28;20896;-75
2021/08/11 07:17:28;;;;;;;1.33;1.30;;;19.60;98.00;;;;;;5072013;28;20468;-75
2021/08/11 07:19:55;;;;;;;1.50;1.47;;;19.60;98.00;;;;;;5071773;28;21104;-74
2021/08/11 07:22:23;;;;;;;1.60;1.57;;;19.60;98.00;;;;;;5071677;28;20465;-75
2021/08/11 07:24:50;;;;;;;1.47;1.23;;;19.60;98.00;;;;;;5071972;28;20456;-75
2021/08/11 07:27:19;;;;;;;1.37;1.30;;;19.60;98.00;;;;;;5075012;28;20509;-75
2021/08/11 07:29:46;;;;;;;1.90;1.60;;;19.60;98.00;;;;;;5078377;28;20476;-76
2021/08/11 07:32:13;;;;;;;1.90;1.50;;;19.60;98.00;;;;;;5082273;28;20864;-76
2021/08/11 07:34:40;;;;;;;3.37;1.73;;;19.70;98.00;;;;;;5083600;28;20515;-77
2021/08/11 07:37:07;;;;;;;1.83;1.57;;;19.70;98.00;;;;;;5082047;28;20831;-73
2021/08/11 07:39:35;;;;;;;1.70;1.23;;;19.70;98.00;;;;;;5071555;28;20454;-75
2021/08/11 07:42:02;;;;;;;1.70;1.57;;;19.70;98.00;;;;;;5071284;28;20511;-75
2021/08/11 07:44:30;;;;;;;1.20;1.00;;;19.70;98.00;;;;;;5071446;28;20449;-75
2021/08/11 07:46:57;;;;;;;1.20;1.20;;;19.80;98.00;;;;;;5071260;28;20498;-76
2021/08/11 07:49:24;;;;;;;1.20;1.10;;;20.10;98.00;;;;;;5071304;28;20614;-75
2021/08/11 07:51:51;;;;;;;1.70;1.60;;;20.50;98.00;;;;;;5052821;28;20989;-75
2021/08/11 07:54:18;;;;;;;1.53;1.20;;;20.70;98.00;;;;;;5071287;28;20516;-75
2021/08/11 07:56:45;;;;;;;1.30;1.20;;;21.00;98.00;;;;;;5071267;28;20496;-76
2021/08/11 07:59:12;;;;;;;1.20;1.20;;;21.30;98.00;;;;;;5071344;28;20460;-75
2021/08/11 08:01:40;;;;;;;1.73;1.53;;;21.60;98.00;;;;;;5071137;28;20518;-76
2021/08/11 08:04:08;;;;;;;2.13;1.30;;;21.70;98.00;;;;;;5071374;28;20514;-76
2021/08/11 08:06:35;;;;;;;1.30;1.20;;;22.00;98.00;;;;;;5071130;28;20502;-75
2021/08/11 08:09:02;;;;;;;1.70;1.40;;;22.20;98.00;;;;;;5071373;28;20457;-76
2021/08/11 08:11:29;;;;;;;1.73;1.30;;;22.30;98.00;;;;;;5071352;28;20559;-75
2021/08/11 08:13:56;;;;;;;1.97;1.47;;;22.60;98.00;;;;;;5071341;28;20939;-76
2021/08/11 08:16:23;;;;;;;1.50;1.40;;;22.80;98.00;;;;;;5071123;28;20523;-75
2021/08/11 08:18:51;;;;;;;1.30;1.20;;;22.80;98.00;;;;;;5070988;28;20955;-76
2021/08/11 08:21:18;;;;;;;1.27;1.20;;;22.80;98.00;;;;;;5070892;28;20506;-76
2021/08/11 08:23:45;;;;;;;1.50;1.40;;;22.70;98.00;;;;;;5070930;28;20448;-75
2021/08/11 08:26:12;;;;;;;1.70;1.43;;;22.90;98.00;;;;;;5070862;28;20888;-75
2021/08/11 08:28:39;;;;;;;1.70;1.50;;;23.00;98.00;;;;;;5053163;28;21038;-76
2021/08/11 08:31:06;;;;;;;1.83;1.40;;;23.20;98.00;;;;;;5070826;28;20465;-76
2021/08/11 08:33:33;;;;;;;1.50;1.40;;;23.30;98.00;;;;;;5070526;28;20507;-75
2021/08/11 08:36:02;;;;;;;1.90;1.70;;;23.40;98.00;;;;;;5070753;28;20492;-76
2021/08/11 08:38:29;;;;;;;1.50;1.40;;;23.60;98.00;;;;;;5070733;28;20461;-76
2021/08/11 08:40:57;;;;;;;1.50;1.40;;;23.70;98.00;;;;;;5070771;28;20482;-76
2021/08/11 08:43:24;;;;;;;1.47;1.17;;;23.60;98.00;;;;;;5070605;28;20493;-76
2021/08/11 08:45:51;;;;;;;1.50;1.40;;;23.70;98.00;;;;;;5070784;28;20449;-76
2021/08/11 08:48:18;;;;;;;2.00;1.50;;;23.70;98.00;;;;;;5070528;28;20457;-76
2021/08/11 08:50:49;;;;;;;1.40;1.40;;;23.70;98.00;;;;;;5070595;28;20804;-77
2021/08/11 08:53:22;;;;;;;1.33;1.30;;;23.70;98.00;;;;;;5070537;28;20457;-76
2021/08/11 08:55:50;;;;;;;1.30;1.27;;;23.70;98.00;;;;;;5070402;28;20480;-76
2021/08/11 08:58:18;;;;;;;1.70;1.50;;;23.80;98.00;;;;;;5052883;28;20492;-76
2021/08/11 09:00:45;;;;;;;1.37;1.37;;;23.90;98.00;;;;;;5070588;28;20544;-76
2021/08/11 09:03:12;;;;;;;1.50;1.40;;;24.00;98.00;;;;;;5072570;28;20606;-76
2021/08/11 09:05:39;;;;;;;1.40;1.40;;;24.20;98.00;;;;;;5056509;28;20543;-77
2021/08/11 09:08:08;;;;;;;1.70;1.60;;;24.40;98.00;;;;;;5072566;28;20503;-76
2021/08/11 09:10:38;;;;;;;1.57;1.33;;;24.50;98.00;;;;;;5085019;28;20455;-76
2021/08/11 09:13:13;;;;;;;1.43;1.30;;;24.60;98.00;;;;;;5088552;28;20474;-76
2021/08/11 09:15:42;;;;;;;2.03;1.47;;;24.80;98.00;;;;;;5085753;28;20492;-76
2021/08/11 09:18:14;;;;;;;2.50;1.67;;;24.90;98.00;;;;;;5068858;28;20849;-75
2021/08/11 09:20:44;;;;;;;1.70;1.43;;;24.90;98.00;;;;;;5081553;28;20522;-75
2021/08/11 09:23:13;;;;;;;1.43;1.37;;;25.00;98.00;;;;;;5080471;28;20552;-76
2021/08/11 09:26:01;;;;;;;1.60;1.50;;;25.10;97.90;;;;;;5078935;28;20452;-75
2021/08/11 09:28:29;;;;;;;2.00;1.80;;;25.20;98.00;;;;;;5072851;28;20529;-75
2021/08/11 09:30:56;;;;;;;3.03;1.90;;;25.20;97.30;;;;;;5081145;28;21164;-75
2021/08/11 09:33:25;;;;;;;1.83;1.30;;;25.20;97.50;;;;;;5072216;28;20870;-75
2021/08/11 09:35:52;;;;;;;1.60;1.60;;;25.30;97.70;;;;;;5080955;28;20583;-75
2021/08/11 09:38:20;;;;;;;3.13;1.90;;;25.40;98.00;;;;;;5072540;28;20463;-76
2021/08/11 09:40:48;;;;;;;3.20;1.90;;;25.60;97.30;;;;;;5089323;28;20512;-76
2021/08/11 09:43:24;;;;;;;2.23;1.50;;;25.80;97.50;;;;;;5082683;28;20813;-73
2021/08/11 09:45:53;;;;;;;2.20;2.07;;;25.80;97.30;;;;;;5072096;28;20448;-77
2021/08/11 09:48:22;;;;;;;2.57;1.50;;;25.80;96.40;;;;;;5080809;28;20925;-77
2021/08/11 09:50:53;;;;;;;1.70;1.43;;;25.50;97.10;;;;;;5077211;28;20464;-77
2021/08/11 09:53:34;;;;;;;1.83;1.50;;;25.40;97.20;;;;;;5081660;28;20535;-78
2021/08/11 09:56:04;;;;;;;1.50;1.30;;;25.30;98.00;;;;;;5065655;28;22115;-77
2021/08/11 09:58:36;;;;;;;2.47;1.87;;;25.40;98.00;;;;;;5072665;28;20517;-76
2021/08/11 10:01:04;;;;;;;2.73;1.97;;;25.60;96.70;;;;;;5081815;28;20464;-76
2021/08/11 10:03:33;;;;;;;1.57;1.40;;;25.80;98.00;;;;;;5088396;28;20982;-75
2021/08/11 10:06:00;;;;;;;2.93;1.37;;;26.00;98.00;;;;;;5088860;28;20463;-75
2021/08/11 10:08:32;;;;;;;2.53;1.83;;;26.30;97.90;;;;;;5086957;28;21035;-74
2021/08/11 10:11:00;;;;;;;1.33;1.30;;;26.60;94.90;;;;;;5074128;28;20835;-78
2021/08/11 10:13:28;;;;;;;1.77;1.53;;;26.80;95.50;;;;;;5085007;28;20831;-76
2021/08/11 10:15:57;;;;;;;1.80;1.60;;;27.10;94.20;;;;;;5071840;28;20565;-74
2021/08/11 10:18:25;;;;;;;2.20;1.80;;;27.20;93.40;;;;;;5072554;28;20581;-75
2021/08/11 10:20:56;;;;;;;1.97;1.80;;;27.20;93.00;;;;;;5071407;28;20565;-74
2021/08/11 10:23:23;;;;;;;2.37;1.50;;;26.90;92.60;;;;;;5082462;28;20460;-74
2021/08/11 10:25:52;;;;;;;2.00;1.70;;;26.80;93.00;;;;;;5085399;28;20461;-77
2021/08/11 10:28:22;;;;;;;2.67;2.20;;;26.70;94.20;;;;;;5083773;28;20679;-76
2021/08/11 10:30:51;;;;;;;2.47;1.63;;;26.60;92.50;;;;;;5077579;28;20459;-76
2021/08/11 10:33:20;;;;;;;2.70;2.17;;;26.40;93.30;;;;;;5075542;28;20514;-77
2021/08/11 10:35:49;;;;;;;1.90;1.60;;;26.40;95.10;;;;;;5085779;28;20550;-77
2021/08/11 10:38:17;;;;;;;1.90;1.53;;;26.50;95.20;;;;;;5071369;28;20868;-76
2021/08/11 10:40:51;;;;;;;2.53;1.77;;;26.60;93.00;;;;;;5054006;28;20864;-77
2021/08/11 10:43:18;;;;;;;2.00;1.67;;;26.70;93.00;;;;;;5062641;28;20506;-77
2021/08/11 10:45:57;;;;;;;1.80;1.50;;;27.10;93.60;;;;;;5074332;28;20500;-77
2021/08/11 10:48:25;;;;;;;2.03;1.50;;;27.40;91.40;;;;;;5074502;28;20453;-76
2021/08/11 10:50:53;;;;;;;1.97;1.50;;;27.70;91.60;;;;;;5070061;28;20510;-77
2021/08/11 10:53:20;;;;;;;2.03;1.67;;;27.60;90.80;;;;;;5084613;28;20452;-76
2021/08/11 10:55:49;;;;;;;1.93;1.57;;;27.40;89.00;;;;;;5088509;28;20519;-76
2021/08/11 10:58:38;;;;;;;1.73;1.37;;;27.30;89.00;;;;;;5082679;28;20496;-76
2021/08/11 11:01:21;;;;;;;1.97;1.67;;;27.40;91.10;;;;;;5071860;28;20463;-77
2021/08/11 11:03:53;;;;;;;2.87;1.70;;;27.70;90.60;;;;;;5071143;28;20459;-78
2021/08/11 11:06:20;;;;;;;2.03;1.60;;;27.80;89.50;;;;;;5072072;28;20487;-76
2021/08/11 11:08:47;;;;;;;2.90;1.80;;;27.60;90.20;;;;;;5078915;28;20510;-77
2021/08/11 11:11:40;;;;;;;1.93;1.80;;;27.40;88.30;;;;;;5071198;28;20510;-77
2021/08/11 11:14:28;;;;;;;2.23;1.77;;;27.40;88.30;;;;;;5075027;28;20820;-76
2021/08/11 11:17:05;;;;;;;2.77;1.90;;;27.20;88.60;;;;;;5079214;28;20493;-74
2021/08/11 11:19:33;;;;;;;2.20;1.70;;;27.00;89.70;;;;;;5086178;28;20529;-77
2021/08/11 11:22:34;;;;;;;1.60;1.30;;;27.00;88.30;;;;;;5079505;28;20461;-77
2021/08/11 11:25:01;;;;;;;2.03;1.60;;;26.90;94.00;;;;;;5074701;28;21765;-76
2021/08/11 11:27:59;;;;;;;3.60;1.83;;;26.80;93.50;;;;;;5078734;28;20449;-75
2021/08/11 11:30:34;;;;;;;2.73;1.57;;;26.60;90.80;;;;;;5077991;28;20463;-76
2021/08/11 11:33:32;;;;;;;1.73;1.43;;;26.60;92.80;;;;;;5087050;28;20456;-76
2021/08/11 11:36:25;;;;;;;2.00;1.80;;;26.90;96.00;;;;;;5064017;28;20488;-76
2021/08/11 11:39:06;;;;;;;2.00;1.80;;;27.60;97.30;;;;;;5069851;28;20464;-76
2021/08/11 11:41:34;;;;;;;3.50;1.90;;;28.20;90.80;;;;;;5075762;28;20950;-76
2021/08/11 11:44:43;;;;;;;2.63;2.13;;;28.70;88.80;;;;;;5078301;28;20513;-76
2021/08/11 11:47:10;;;;;;;2.90;1.80;;;28.90;86.80;;;;;;5024423;28;20868;-76
2021/08/11 11:49:37;;;;;;;2.43;1.83;;;28.80;86.30;;;;;;5076719;28;20963;-77
2021/08/11 11:52:13;;;;;;;3.20;1.80;;;28.70;87.10;;;;;;5079631;28;20804;-76
2021/08/11 11:54:45;;;;;;;2.17;1.73;;;28.50;84.70;;;;;;5081202;28;20459;-76
2021/08/11 11:57:15;;;;;;;2.70;1.70;;;28.60;85.60;;;;;;5067138;28;21031;-77
2021/08/11 11:59:46;;;;;;;1.53;1.47;;;29.00;87.60;;;;;;5073278;28;20821;-77
2021/08/11 12:02:20;;;;;;;2.20;1.63;;;29.20;84.20;;;;;;5084290;28;20851;-76
2021/08/11 12:05:00;;;;;;;2.47;1.70;;;29.60;84.30;;;;;;5082883;28;20458;-78
2021/08/11 12:07:29;;;;;;;2.90;1.93;;;29.70;83.00;;;;;;5081627;28;20445;-76
2021/08/11 12:09:56;;;;;;;1.73;1.70;;;30.00;83.40;;;;;;5083323;28;20951;-76
2021/08/11 12:12:23;;;;;;;4.50;1.87;;;29.90;81.80;;;;;;5085654;28;20476;-75
2021/08/11 12:14:50;;;;;;;1.93;1.60;;;29.90;82.10;;;;;;5055056;28;20452;-75
2021/08/11 12:17:28;;;;;;;2.40;1.80;;;30.10;82.80;;;;;;5074252;28;20487;-75
2021/08/11 12:19:55;;;;;;;3.23;2.30;;;30.20;79.90;;;;;;5080632;28;20479;-74
2021/08/11 12:22:36;;;;;;;2.93;2.10;;;30.30;80.30;;;;;;5075658;28;20797;-75
2021/08/11 12:25:03;;;;;;;2.83;1.93;;;30.20;79.70;;;;;;5070105;28;20453;-73
2021/08/11 12:27:30;;;;;;;1.70;1.43;;;30.20;81.40;;;;;;5077279;28;20487;-74
2021/08/11 12:30:17;;;;;;;2.33;1.90;;;30.10;78.90;;;;;;5059548;28;20822;-74
2021/08/11 12:32:44;;;;;;;2.40;2.03;;;29.90;81.00;;;;;;5061111;28;20460;-75
2021/08/11 12:35:13;;;;;;;1.80;1.70;;;29.40;82.00;;;;;;5077472;28;20452;-75
2021/08/11 12:37:47;;;;;;;2.40;1.80;;;29.10;84.00;;;;;;5082126;28;20501;-75
2021/08/11 12:40:32;;;;;;;2.00;1.80;;;29.20;85.60;;;;;;5077642;28;20516;-74
2021/08/11 12:43:00;;;;;;;2.10;1.50;;;29.40;84.50;;;;;;5080543;28;20494;-74
2021/08/11 12:45:44;;;;;;;3.30;2.23;;;29.40;84.60;;;;;;5084075;28;20823;-74
2021/08/11 12:48:25;;;;;;;1.73;1.63;;;29.60;85.30;;;;;;5086940;28;20835;-73
2021/08/11 12:50:52;;;;;;;2.60;1.97;;;29.90;84.10;;;;;;5075499;28;20452;-74
2021/08/11 12:53:28;;;;;;;2.53;1.70;;;30.10;83.90;;;;;;5090657;28;20451;-75
2021/08/11 12:56:12;;;;;;;2.00;1.90;;;30.20;82.60;;;;;;5058009;28;20564;-74
2021/08/11 12:58:59;;;;;;;1.50;1.47;;;30.30;83.70;;;;;;5068128;28;21051;-75
2021/08/11 13:01:38;;;;;;;3.83;1.97;;;30.60;82.60;;;;;;5093389;28;20569;-77